2026/08/11

Sensor Date Temp./Hum.
h4-hermonville 11-08-2026 - 23:58 24.1°C / 39%
h2-hermonville 11-08-2026 - 23:54 24.3°C / 42.5%
h1-hermonville 11-08-2026 - 23:53 22.6°C / 43.5%
h3-hermonville 11-08-2026 - 23:50 23.9°C / 42.5%
h4-hermonville 11-08-2026 - 23:48 24.5°C / 40.5%
h2-hermonville 11-08-2026 - 23:44 24.5°C / 42.5%
h1-hermonville 11-08-2026 - 23:43 22.6°C / 43%
h3-hermonville 11-08-2026 - 23:40 24.1°C / 43%
h4-hermonville 11-08-2026 - 23:38 24.5°C / 41.5%
h2-hermonville 11-08-2026 - 23:34 24.5°C / 42.5%
h1-hermonville 11-08-2026 - 23:33 22.7°C / 43%
h3-hermonville 11-08-2026 - 23:30 24.3°C / 42%
h4-hermonville 11-08-2026 - 23:28 24.7°C / 41.5%
h2-hermonville 11-08-2026 - 23:24 25.2°C / 41.5%
h1-hermonville 11-08-2026 - 23:23 22.9°C / 44.5%
h3-hermonville 11-08-2026 - 23:20 24.4°C / 43%
h4-hermonville 11-08-2026 - 23:18 25°C / 40.5%
h2-hermonville 11-08-2026 - 23:14 25.9°C / 40.5%
h1-hermonville 11-08-2026 - 23:13 23.3°C / 43%
h3-hermonville 11-08-2026 - 23:10 24.6°C / 42%
h4-hermonville 11-08-2026 - 23:08 25.3°C / 39.5%
h2-hermonville 11-08-2026 - 23:04 26.4°C / 39%
h1-hermonville 11-08-2026 - 23:03 23.6°C / 41.5%
h3-hermonville 11-08-2026 - 23:00 24.8°C / 41%
h4-hermonville 11-08-2026 - 22:58 25.5°C / 40%
h2-hermonville 11-08-2026 - 22:54 26.8°C / 38%
h3-hermonville 11-08-2026 - 22:50 25.1°C / 40%
h4-hermonville 11-08-2026 - 22:48 25.6°C / 40.5%
h2-hermonville 11-08-2026 - 22:44 26.8°C / 38%
h1-hermonville 11-08-2026 - 22:43 24.3°C / 41%
h3-hermonville 11-08-2026 - 22:40 25.3°C / 40%
h4-hermonville 11-08-2026 - 22:38 25.5°C / 40%
h2-hermonville 11-08-2026 - 22:34 26.9°C / 38.5%
h1-hermonville 11-08-2026 - 22:33 24.5°C / 41.5%
h3-hermonville 11-08-2026 - 22:30 25.5°C / 41.5%
h4-hermonville 11-08-2026 - 22:28 25.7°C / 39.5%
h2-hermonville 11-08-2026 - 22:24 27°C / 39.5%
h1-hermonville 11-08-2026 - 22:23 24.6°C / 42%
h3-hermonville 11-08-2026 - 22:20 25.7°C / 40.5%
h4-hermonville 11-08-2026 - 22:18 25.7°C / 41%
h2-hermonville 11-08-2026 - 22:14 27.3°C / 39.5%
h1-hermonville 11-08-2026 - 22:13 24.9°C / 42%
h3-hermonville 11-08-2026 - 22:10 25.8°C / 41%
h4-hermonville 11-08-2026 - 22:08 26°C / 40%
h2-hermonville 11-08-2026 - 22:04 27.4°C / 39%
h1-hermonville 11-08-2026 - 22:03 25.1°C / 41%
h3-hermonville 11-08-2026 - 22:00 26°C / 40.5%
h4-hermonville 11-08-2026 - 21:58 26.2°C / 39.5%
h2-hermonville 11-08-2026 - 21:54 27.2°C / 40%
h1-hermonville 11-08-2026 - 21:53 25.4°C / 40.5%
h3-hermonville 11-08-2026 - 21:50 26°C / 39.5%
h4-hermonville 11-08-2026 - 21:48 26.1°C / 39%
h2-hermonville 11-08-2026 - 21:44 27°C / 38.5%
h1-hermonville 11-08-2026 - 21:43 25.4°C / 40.5%
h3-hermonville 11-08-2026 - 21:40 26°C / 40%
h4-hermonville 11-08-2026 - 21:38 26.3°C / 40%
h2-hermonville 11-08-2026 - 21:34 26.7°C / 40%
h1-hermonville 11-08-2026 - 21:34 25.7°C / 40.5%
h3-hermonville 11-08-2026 - 21:30 26.2°C / 39.5%
h4-hermonville 11-08-2026 - 21:28 26.5°C / 39%
h2-hermonville 11-08-2026 - 21:24 26.9°C / 39%
h1-hermonville 11-08-2026 - 21:24 26°C / 41%
h3-hermonville 11-08-2026 - 21:20 26.6°C / 39.5%
h4-hermonville 11-08-2026 - 21:18 26.8°C / 39%
h2-hermonville 11-08-2026 - 21:14 27.6°C / 38.5%
h1-hermonville 11-08-2026 - 21:14 26.4°C / 40.5%
h3-hermonville 11-08-2026 - 21:10 27.1°C / 39%
h4-hermonville 11-08-2026 - 21:08 27°C / 39%
h2-hermonville 11-08-2026 - 21:04 28.2°C / 37.5%
h1-hermonville 11-08-2026 - 21:04 26.8°C / 40%
h3-hermonville 11-08-2026 - 21:00 27.5°C / 38%
h4-hermonville 11-08-2026 - 20:58 27.5°C / 38.5%
h2-hermonville 11-08-2026 - 20:54 28.7°C / 37.5%
h1-hermonville 11-08-2026 - 20:54 27.4°C / 39%
h3-hermonville 11-08-2026 - 20:50 28.2°C / 38.5%
h4-hermonville 11-08-2026 - 20:48 27.9°C / 37.5%
h2-hermonville 11-08-2026 - 20:44 28.8°C / 38.5%
h1-hermonville 11-08-2026 - 20:44 28.1°C / 39.5%
h3-hermonville 11-08-2026 - 20:40 28.5°C / 37%
h4-hermonville 11-08-2026 - 20:38 28.4°C / 35.5%
h2-hermonville 11-08-2026 - 20:34 28.1°C / 37.5%
h1-hermonville 11-08-2026 - 20:34 28.7°C / 36%
h4-hermonville 11-08-2026 - 20:28 28.9°C / 31.5%
h2-hermonville 11-08-2026 - 20:24 28.1°C / 35%
h1-hermonville 11-08-2026 - 20:24 29.1°C / 31.5%
h3-hermonville 11-08-2026 - 20:20 28.9°C / 32%
h4-hermonville 11-08-2026 - 20:18 29°C / 31%
h2-hermonville 11-08-2026 - 20:14 28.8°C / 34%
h1-hermonville 11-08-2026 - 20:14 29.3°C / 30.5%
h3-hermonville 11-08-2026 - 20:10 28.9°C / 31.5%
h4-hermonville 11-08-2026 - 20:08 29.2°C / 30.5%
h2-hermonville 11-08-2026 - 20:04 29.9°C / 32%
h1-hermonville 11-08-2026 - 20:04 29.4°C / 30.5%
h3-hermonville 11-08-2026 - 20:00 28.7°C / 32%
h4-hermonville 11-08-2026 - 19:58 29.3°C / 30.5%
h2-hermonville 11-08-2026 - 19:54 30°C / 31.5%
h1-hermonville 11-08-2026 - 19:54 29.5°C / 30.5%
h3-hermonville 11-08-2026 - 19:50 28.8°C / 31.5%
h4-hermonville 11-08-2026 - 19:48 29.5°C / 30%
h2-hermonville 11-08-2026 - 19:44 30.2°C / 31.5%
h1-hermonville 11-08-2026 - 19:44 29.6°C / 30.5%
h3-hermonville 11-08-2026 - 19:40 28.8°C / 32%
h4-hermonville 11-08-2026 - 19:38 29.5°C / 30.5%
h2-hermonville 11-08-2026 - 19:34 30.4°C / 31%
h1-hermonville 11-08-2026 - 19:34 29.7°C / 30.5%
h3-hermonville 11-08-2026 - 19:30 29.2°C / 30.5%
h4-hermonville 11-08-2026 - 19:28 29.4°C / 29.5%
h2-hermonville 11-08-2026 - 19:24 30.4°C / 30%
h1-hermonville 11-08-2026 - 19:24 29.7°C / 30%
h3-hermonville 11-08-2026 - 19:20 29.4°C / 30.5%
h4-hermonville 11-08-2026 - 19:18 29.5°C / 30%
h2-hermonville 11-08-2026 - 19:14 30.5°C / 32%
h1-hermonville 11-08-2026 - 19:14 29.9°C / 30.5%
h3-hermonville 11-08-2026 - 19:10 29.4°C / 30.5%
h4-hermonville 11-08-2026 - 19:08 29.5°C / 31%
h2-hermonville 11-08-2026 - 19:04 30.8°C / 31%
h1-hermonville 11-08-2026 - 19:04 29.7°C / 30.5%
h3-hermonville 11-08-2026 - 19:00 29.6°C / 31%
h4-hermonville 11-08-2026 - 18:58 29.3°C / 30.5%
h2-hermonville 11-08-2026 - 18:54 30.6°C / 30.5%
h1-hermonville 11-08-2026 - 18:54 29.9°C / 30%
h3-hermonville 11-08-2026 - 18:50 29.6°C / 30.5%
h4-hermonville 11-08-2026 - 18:48 29.4°C / 31%
h2-hermonville 11-08-2026 - 18:44 31°C / 31%
h1-hermonville 11-08-2026 - 18:44 29.8°C / 30.5%
h3-hermonville 11-08-2026 - 18:40 29.3°C / 31%
h4-hermonville 11-08-2026 - 18:38 29.5°C / 30%
h2-hermonville 11-08-2026 - 18:34 31.2°C / 30%
h1-hermonville 11-08-2026 - 18:34 29.9°C / 30%
h3-hermonville 11-08-2026 - 18:30 29.2°C / 32%
h4-hermonville 11-08-2026 - 18:28 29.5°C / 30.5%
h2-hermonville 11-08-2026 - 18:24 31.4°C / 30.5%
h1-hermonville 11-08-2026 - 18:24 29.9°C / 31%
h3-hermonville 11-08-2026 - 18:20 29.5°C / 31%
h4-hermonville 11-08-2026 - 18:18 29.5°C / 31%
h2-hermonville 11-08-2026 - 18:14 31.4°C / 31%
h1-hermonville 11-08-2026 - 18:14 29.7°C / 31%
h3-hermonville 11-08-2026 - 18:10 29.7°C / 31.5%
h4-hermonville 11-08-2026 - 18:08 29.4°C / 31.5%
h2-hermonville 11-08-2026 - 18:04 31.5°C / 31%
h1-hermonville 11-08-2026 - 18:04 29.8°C / 32%
h4-hermonville 11-08-2026 - 17:58 29.1°C / 32%
h1-hermonville 11-08-2026 - 17:44 29.5°C / 31.5%
h3-hermonville 11-08-2026 - 17:40 29.4°C / 32%
h4-hermonville 11-08-2026 - 17:38 29.2°C / 32%
h2-hermonville 11-08-2026 - 17:34 31.1°C / 31%
h1-hermonville 11-08-2026 - 17:34 29.4°C / 32.5%
h4-hermonville 11-08-2026 - 17:28 29.2°C / 33%
h2-hermonville 11-08-2026 - 17:24 31.3°C / 31%
h1-hermonville 11-08-2026 - 17:24 29.4°C / 32.5%
h3-hermonville 11-08-2026 - 17:20 30.1°C / 31.5%
h4-hermonville 11-08-2026 - 17:18 29°C / 33%
h2-hermonville 11-08-2026 - 17:14 31.5°C / 32%
h1-hermonville 11-08-2026 - 17:14 29.7°C / 32.5%
h3-hermonville 11-08-2026 - 17:10 30°C / 32%
h4-hermonville 11-08-2026 - 17:08 28.8°C / 33%
h2-hermonville 11-08-2026 - 17:04 30.8°C / 33%
h1-hermonville 11-08-2026 - 17:04 29.3°C / 32%
h3-hermonville 11-08-2026 - 17:00 29.9°C / 32%
h4-hermonville 11-08-2026 - 16:58 28.9°C / 33%
h2-hermonville 11-08-2026 - 16:54 30.6°C / 33.5%
h1-hermonville 11-08-2026 - 16:54 29.4°C / 33.5%
h3-hermonville 11-08-2026 - 16:50 30.1°C / 32.5%
h4-hermonville 11-08-2026 - 16:48 28.7°C / 34.5%
h2-hermonville 11-08-2026 - 16:44 30.4°C / 34.5%
h1-hermonville 11-08-2026 - 16:44 29.1°C / 35%
h3-hermonville 11-08-2026 - 16:40 29.7°C / 33%
h4-hermonville 11-08-2026 - 16:38 28.8°C / 34.5%
h2-hermonville 11-08-2026 - 16:34 29.3°C / 36.5%
h1-hermonville 11-08-2026 - 16:34 29°C / 34%
h3-hermonville 11-08-2026 - 16:30 29.8°C / 32.5%
h4-hermonville 11-08-2026 - 16:28 28.7°C / 34%
h2-hermonville 11-08-2026 - 16:24 29°C / 37%
h1-hermonville 11-08-2026 - 16:24 29.1°C / 34%
h3-hermonville 11-08-2026 - 16:20 30°C / 32.5%
h4-hermonville 11-08-2026 - 16:18 28.8°C / 34.5%
h2-hermonville 11-08-2026 - 16:14 28.2°C / 38.5%
h1-hermonville 11-08-2026 - 16:14 28.7°C / 34.5%
h3-hermonville 11-08-2026 - 16:10 29.6°C / 34%
h4-hermonville 11-08-2026 - 16:08 28.7°C / 35.5%
h2-hermonville 11-08-2026 - 16:04 28.3°C / 38.5%
h1-hermonville 11-08-2026 - 16:04 28.5°C / 36%
h3-hermonville 11-08-2026 - 16:00 29.1°C / 35.5%
h4-hermonville 11-08-2026 - 15:58 28.5°C / 36%
h2-hermonville 11-08-2026 - 15:54 27.6°C / 40.5%
h1-hermonville 11-08-2026 - 15:54 28.4°C / 36.5%
h3-hermonville 11-08-2026 - 15:50 29.7°C / 35%
h4-hermonville 11-08-2026 - 15:48 28.4°C / 36%
h2-hermonville 11-08-2026 - 15:44 27.8°C / 40%
h1-hermonville 11-08-2026 - 15:44 28.4°C / 36.5%
h3-hermonville 11-08-2026 - 15:40 28.8°C / 35.5%
h4-hermonville 11-08-2026 - 15:38 28.5°C / 36%
h2-hermonville 11-08-2026 - 15:34 28°C / 40.5%
h1-hermonville 11-08-2026 - 15:34 28°C / 37.5%
h3-hermonville 11-08-2026 - 15:30 28.7°C / 38%
h4-hermonville 11-08-2026 - 15:28 28.4°C / 37.5%
h2-hermonville 11-08-2026 - 15:24 28°C / 40.5%
h1-hermonville 11-08-2026 - 15:24 27.9°C / 39.5%
h3-hermonville 11-08-2026 - 15:20 28.5°C / 38.5%
h2-hermonville 11-08-2026 - 15:14 27.6°C / 41%
h1-hermonville 11-08-2026 - 15:14 27.7°C / 40.5%
h4-hermonville 11-08-2026 - 15:08 28.4°C / 38.5%
h2-hermonville 11-08-2026 - 15:04 27.6°C / 42.5%
h1-hermonville 11-08-2026 - 15:04 27.8°C / 41.5%
h3-hermonville 11-08-2026 - 15:00 28.4°C / 41%
h4-hermonville 11-08-2026 - 14:58 28.6°C / 39.5%
h2-hermonville 11-08-2026 - 14:54 27.2°C / 44%
h1-hermonville 11-08-2026 - 14:54 28°C / 41.5%
h4-hermonville 11-08-2026 - 14:48 28.3°C / 40%
h2-hermonville 11-08-2026 - 14:44 27.1°C / 45%
h1-hermonville 11-08-2026 - 14:44 27.9°C / 41.5%
h3-hermonville 11-08-2026 - 14:40 28.1°C / 41.5%
h4-hermonville 11-08-2026 - 14:38 28.3°C / 40.5%
h2-hermonville 11-08-2026 - 14:34 27°C / 45%
h1-hermonville 11-08-2026 - 14:34 27.3°C / 43%
h3-hermonville 11-08-2026 - 14:30 27.7°C / 42.5%
h4-hermonville 11-08-2026 - 14:28 28°C / 41.5%
h2-hermonville 11-08-2026 - 14:24 26.8°C / 45.5%
h1-hermonville 11-08-2026 - 14:24 27.2°C / 43.5%
h3-hermonville 11-08-2026 - 14:20 27.8°C / 42.5%
h4-hermonville 11-08-2026 - 14:18 28.1°C / 41.5%
h2-hermonville 11-08-2026 - 14:14 26.6°C / 46.5%
h1-hermonville 11-08-2026 - 14:14 27.3°C / 44%
h3-hermonville 11-08-2026 - 14:10 28.1°C / 42.5%
h4-hermonville 11-08-2026 - 14:08 28.1°C / 41%
h2-hermonville 11-08-2026 - 14:04 26.6°C / 46.5%
h1-hermonville 11-08-2026 - 14:04 27.1°C / 44%
h3-hermonville 11-08-2026 - 14:00 28.1°C / 42%
h4-hermonville 11-08-2026 - 13:58 28.2°C / 41.5%
h2-hermonville 11-08-2026 - 13:54 26.5°C / 46.5%
h1-hermonville 11-08-2026 - 13:54 26.8°C / 44.5%
h4-hermonville 11-08-2026 - 13:48 28°C / 41.5%
h2-hermonville 11-08-2026 - 13:44 26.5°C / 47%
h1-hermonville 11-08-2026 - 13:44 26.8°C / 45%
h3-hermonville 11-08-2026 - 13:40 27.3°C / 44.5%
h4-hermonville 11-08-2026 - 13:38 27.9°C / 41.5%
h2-hermonville 11-08-2026 - 13:34 26.4°C / 47%
h1-hermonville 11-08-2026 - 13:34 26.6°C / 46%
h3-hermonville 11-08-2026 - 13:30 27.2°C / 44.5%
h4-hermonville 11-08-2026 - 13:28 27.8°C / 42%
h2-hermonville 11-08-2026 - 13:24 26.6°C / 47%
h1-hermonville 11-08-2026 - 13:24 26.5°C / 46.5%
h3-hermonville 11-08-2026 - 13:20 26.9°C / 45%
h4-hermonville 11-08-2026 - 13:18 27.7°C / 42.5%
h2-hermonville 11-08-2026 - 13:14 26.4°C / 47%
h1-hermonville 11-08-2026 - 13:14 26.4°C / 46.5%
h3-hermonville 11-08-2026 - 13:10 26.9°C / 45.5%
h2-hermonville 11-08-2026 - 13:04 26.1°C / 48%
h1-hermonville 11-08-2026 - 13:04 25.9°C / 48%
h3-hermonville 11-08-2026 - 13:00 26.6°C / 46%
h4-hermonville 11-08-2026 - 12:58 27.6°C / 43%
h2-hermonville 11-08-2026 - 12:54 26.2°C / 48%
h1-hermonville 11-08-2026 - 12:54 25.9°C / 48%
h3-hermonville 11-08-2026 - 12:50 26.4°C / 46.5%
h2-hermonville 11-08-2026 - 12:44 25.9°C / 48.5%
h1-hermonville 11-08-2026 - 12:44 25.7°C / 48.5%
h3-hermonville 11-08-2026 - 12:40 26.2°C / 46.5%
h4-hermonville 11-08-2026 - 12:38 27.6°C / 43%
h2-hermonville 11-08-2026 - 12:34 26.1°C / 48%
h1-hermonville 11-08-2026 - 12:34 25.4°C / 48.5%
h3-hermonville 11-08-2026 - 12:30 26.2°C / 47.5%
h2-hermonville 11-08-2026 - 12:24 25.9°C / 50%
h1-hermonville 11-08-2026 - 12:24 25.2°C / 51%
h3-hermonville 11-08-2026 - 12:20 25.8°C / 49%
h2-hermonville 11-08-2026 - 12:14 25.5°C / 50%
h1-hermonville 11-08-2026 - 12:14 25°C / 50%
h3-hermonville 11-08-2026 - 12:10 25.8°C / 49%
h2-hermonville 11-08-2026 - 12:04 25.4°C / 51%
h1-hermonville 11-08-2026 - 12:04 24.8°C / 52%
h3-hermonville 11-08-2026 - 12:00 25.3°C / 50%
h4-hermonville 11-08-2026 - 11:58 31.4°C / 36%
h2-hermonville 11-08-2026 - 11:54 25.2°C / 52%
h1-hermonville 11-08-2026 - 11:54 24.5°C / 53%
h3-hermonville 11-08-2026 - 11:50 25.1°C / 51.5%
h4-hermonville 11-08-2026 - 11:48 33°C / 34.5%
h2-hermonville 11-08-2026 - 11:44 24.8°C / 53%
h1-hermonville 11-08-2026 - 11:44 24.1°C / 53.5%
h3-hermonville 11-08-2026 - 11:40 25°C / 52%
h4-hermonville 11-08-2026 - 11:38 33.5°C / 33.5%
h1-hermonville 11-08-2026 - 11:34 23.7°C / 55.5%
h3-hermonville 11-08-2026 - 11:30 24.5°C / 52.5%
h2-hermonville 11-08-2026 - 11:24 24.4°C / 54%
h1-hermonville 11-08-2026 - 11:24 23.6°C / 56%
h3-hermonville 11-08-2026 - 11:20 24.4°C / 53.5%
h2-hermonville 11-08-2026 - 11:14 24.1°C / 55%
h1-hermonville 11-08-2026 - 11:14 23.4°C / 57%
h3-hermonville 11-08-2026 - 11:10 24.3°C / 54%
h4-hermonville 11-08-2026 - 11:08 33.1°C / 35%
h2-hermonville 11-08-2026 - 11:04 24°C / 55.5%
h1-hermonville 11-08-2026 - 11:04 23°C / 58.5%
h3-hermonville 11-08-2026 - 11:00 24°C / 55.5%
h2-hermonville 11-08-2026 - 10:54 23.8°C / 56.5%
h1-hermonville 11-08-2026 - 10:54 22.8°C / 59.5%
h3-hermonville 11-08-2026 - 10:50 23.6°C / 56.5%
h4-hermonville 11-08-2026 - 10:48 32.5°C / 36%
h2-hermonville 11-08-2026 - 10:44 23.4°C / 56.5%
h1-hermonville 11-08-2026 - 10:44 22.3°C / 60.5%
h3-hermonville 11-08-2026 - 10:40 23.3°C / 57%
h4-hermonville 11-08-2026 - 10:38 31.2°C / 38.5%
h2-hermonville 11-08-2026 - 10:34 23.4°C / 57%
h1-hermonville 11-08-2026 - 10:34 22°C / 61.5%
h3-hermonville 11-08-2026 - 10:30 22.9°C / 58%
h4-hermonville 11-08-2026 - 10:28 29.9°C / 40%
h2-hermonville 11-08-2026 - 10:24 23.2°C / 57.5%
h1-hermonville 11-08-2026 - 10:24 21.5°C / 62.5%
h3-hermonville 11-08-2026 - 10:20 22.7°C / 58.5%
h4-hermonville 11-08-2026 - 10:18 30.5°C / 38.5%
h2-hermonville 11-08-2026 - 10:14 22.9°C / 58%
h1-hermonville 11-08-2026 - 10:14 21.1°C / 64%
h3-hermonville 11-08-2026 - 10:10 22.7°C / 58.5%
h1-hermonville 11-08-2026 - 10:04 20.7°C / 65.5%
h3-hermonville 11-08-2026 - 10:00 22.3°C / 59.5%
h4-hermonville 11-08-2026 - 09:58 30°C / 40%
h2-hermonville 11-08-2026 - 09:54 22.6°C / 59%
h1-hermonville 11-08-2026 - 09:54 20.4°C / 66%
h3-hermonville 11-08-2026 - 09:50 22°C / 60%
h4-hermonville 11-08-2026 - 09:48 29°C / 41.5%
h2-hermonville 11-08-2026 - 09:44 22.5°C / 59%
h1-hermonville 11-08-2026 - 09:44 20°C / 67%
h3-hermonville 11-08-2026 - 09:40 21.8°C / 61%
h4-hermonville 11-08-2026 - 09:38 28.9°C / 42%
h1-hermonville 11-08-2026 - 09:34 19.7°C / 68%
h3-hermonville 11-08-2026 - 09:30 21.6°C / 61.5%
h4-hermonville 11-08-2026 - 09:28 29.8°C / 40%
h2-hermonville 11-08-2026 - 09:24 21.5°C / 62%
h1-hermonville 11-08-2026 - 09:24 19.4°C / 70.5%
h3-hermonville 11-08-2026 - 09:20 21.1°C / 62.5%
h2-hermonville 11-08-2026 - 09:14 21°C / 63%
h1-hermonville 11-08-2026 - 09:14 18.8°C / 71.5%
h3-hermonville 11-08-2026 - 09:10 20.9°C / 63.5%
h2-hermonville 11-08-2026 - 09:04 21.1°C / 63%
h1-hermonville 11-08-2026 - 09:04 18.6°C / 72%
h3-hermonville 11-08-2026 - 09:00 20.9°C / 63%
h4-hermonville 11-08-2026 - 08:58 27.8°C / 44%
h2-hermonville 11-08-2026 - 08:54 20.9°C / 63%
h1-hermonville 11-08-2026 - 08:54 18.4°C / 72.5%
h3-hermonville 11-08-2026 - 08:50 20.8°C / 63%
h4-hermonville 11-08-2026 - 08:48 27.1°C / 45%
h2-hermonville 11-08-2026 - 08:44 20.7°C / 64%
h1-hermonville 11-08-2026 - 08:44 18.5°C / 72%
h3-hermonville 11-08-2026 - 08:40 20.5°C / 64%
h4-hermonville 11-08-2026 - 08:38 26.3°C / 47.5%
h2-hermonville 11-08-2026 - 08:34 20.6°C / 64%
h1-hermonville 11-08-2026 - 08:34 18.1°C / 73.5%
h3-hermonville 11-08-2026 - 08:30 19.9°C / 66%
h4-hermonville 11-08-2026 - 08:28 25.1°C / 50.5%
h2-hermonville 11-08-2026 - 08:24 20.2°C / 65.5%
h3-hermonville 11-08-2026 - 08:20 20°C / 66%
h2-hermonville 11-08-2026 - 08:14 19.9°C / 66.5%
h1-hermonville 11-08-2026 - 08:14 17.8°C / 74.5%
h3-hermonville 11-08-2026 - 08:10 19.7°C / 66.5%
h2-hermonville 11-08-2026 - 08:04 19.6°C / 67%
h1-hermonville 11-08-2026 - 08:04 17.6°C / 75%
h3-hermonville 11-08-2026 - 08:00 19.7°C / 66.5%
h4-hermonville 11-08-2026 - 07:58 22°C / 58%
h2-hermonville 11-08-2026 - 07:54 19.5°C / 67.5%
h1-hermonville 11-08-2026 - 07:54 17.5°C / 75.5%
h3-hermonville 11-08-2026 - 07:50 19.6°C / 66.5%
h4-hermonville 11-08-2026 - 07:48 21.6°C / 59%
h2-hermonville 11-08-2026 - 07:44 19.6°C / 67%
h1-hermonville 11-08-2026 - 07:44 17.4°C / 75.5%
h3-hermonville 11-08-2026 - 07:40 19.4°C / 67.5%
h4-hermonville 11-08-2026 - 07:38 21.5°C / 59.5%
h2-hermonville 11-08-2026 - 07:34 19.4°C / 67.5%
h1-hermonville 11-08-2026 - 07:34 17.3°C / 76%
h3-hermonville 11-08-2026 - 07:30 19.1°C / 68%
h4-hermonville 11-08-2026 - 07:28 21.3°C / 60%
h2-hermonville 11-08-2026 - 07:24 19.4°C / 67.5%
h1-hermonville 11-08-2026 - 07:24 17.3°C / 76%
h3-hermonville 11-08-2026 - 07:20 19°C / 68.5%
h4-hermonville 11-08-2026 - 07:18 21.1°C / 60.5%
h2-hermonville 11-08-2026 - 07:14 19.4°C / 67.5%
h1-hermonville 11-08-2026 - 07:14 17.1°C / 76.5%
h3-hermonville 11-08-2026 - 07:10 18.9°C / 68.5%
h4-hermonville 11-08-2026 - 07:08 20.8°C / 61%
h2-hermonville 11-08-2026 - 07:04 19°C / 68%
h3-hermonville 11-08-2026 - 07:00 18.9°C / 68.5%
h4-hermonville 11-08-2026 - 06:58 20.8°C / 61%
h2-hermonville 11-08-2026 - 06:54 19.1°C / 68%
h1-hermonville 11-08-2026 - 06:54 16.9°C / 77.5%
h3-hermonville 11-08-2026 - 06:50 18.8°C / 69%
h4-hermonville 11-08-2026 - 06:48 20.8°C / 60%
h2-hermonville 11-08-2026 - 06:44 19.1°C / 68%
h3-hermonville 11-08-2026 - 06:40 19.2°C / 68%
h4-hermonville 11-08-2026 - 06:38 20.6°C / 61.5%
h2-hermonville 11-08-2026 - 06:34 19.1°C / 68%
h1-hermonville 11-08-2026 - 06:34 16.8°C / 78%
h3-hermonville 11-08-2026 - 06:30 19.1°C / 68%
h4-hermonville 11-08-2026 - 06:28 20.6°C / 61.5%
h2-hermonville 11-08-2026 - 06:24 19°C / 68.5%
h3-hermonville 11-08-2026 - 06:20 19.2°C / 67.5%
h4-hermonville 11-08-2026 - 06:18 20.3°C / 62.5%
h2-hermonville 11-08-2026 - 06:14 19.1°C / 68%
h1-hermonville 11-08-2026 - 06:14 16.9°C / 77.5%
h3-hermonville 11-08-2026 - 06:10 19.4°C / 66.5%
h4-hermonville 11-08-2026 - 06:08 20.3°C / 63%
h3-hermonville 11-08-2026 - 06:00 19.6°C / 66.5%
h4-hermonville 11-08-2026 - 05:58 19.9°C / 64%
h2-hermonville 11-08-2026 - 05:54 19.5°C / 67%
h1-hermonville 11-08-2026 - 05:54 16.9°C / 77.5%
h3-hermonville 11-08-2026 - 05:50 19.7°C / 66%
h4-hermonville 11-08-2026 - 05:48 20.1°C / 64%
h2-hermonville 11-08-2026 - 05:44 19.8°C / 66%
h1-hermonville 11-08-2026 - 05:44 17°C / 77%
h3-hermonville 11-08-2026 - 05:40 19.6°C / 66%
h2-hermonville 11-08-2026 - 05:34 19.9°C / 65.5%
h3-hermonville 11-08-2026 - 05:30 19.3°C / 67.5%
h2-hermonville 11-08-2026 - 05:24 20.1°C / 64.5%
h1-hermonville 11-08-2026 - 05:24 17.3°C / 76%
h3-hermonville 11-08-2026 - 05:20 19.3°C / 68%
h4-hermonville 11-08-2026 - 05:18 21.3°C / 59.5%
h2-hermonville 11-08-2026 - 05:14 20.7°C / 63%
h1-hermonville 11-08-2026 - 05:14 17.3°C / 76%
h3-hermonville 11-08-2026 - 05:10 19.2°C / 68%
h4-hermonville 11-08-2026 - 05:08 21.3°C / 59.5%
h2-hermonville 11-08-2026 - 05:04 21.3°C / 61.5%
h1-hermonville 11-08-2026 - 05:04 17.4°C / 76%
h3-hermonville 11-08-2026 - 05:00 19.2°C / 68%
h4-hermonville 11-08-2026 - 04:58 21.4°C / 59.5%
h2-hermonville 11-08-2026 - 04:54 21.9°C / 59.5%
h1-hermonville 11-08-2026 - 04:54 17.6°C / 75.5%
h3-hermonville 11-08-2026 - 04:50 19.3°C / 67.5%
h4-hermonville 11-08-2026 - 04:48 21.6°C / 59%
h2-hermonville 11-08-2026 - 04:44 21.7°C / 60%
h3-hermonville 11-08-2026 - 04:40 19.5°C / 67.5%
h2-hermonville 11-08-2026 - 04:34 21.7°C / 60%
h1-hermonville 11-08-2026 - 04:34 17.8°C / 74.5%
h3-hermonville 11-08-2026 - 04:30 19.6°C / 67%
h2-hermonville 11-08-2026 - 04:24 21.8°C / 60%
h1-hermonville 11-08-2026 - 04:24 17.8°C / 74.5%
h3-hermonville 11-08-2026 - 04:20 19.7°C / 66.5%
h4-hermonville 11-08-2026 - 04:18 21.7°C / 59%
h2-hermonville 11-08-2026 - 04:14 22.4°C / 58%
h1-hermonville 11-08-2026 - 04:14 18°C / 74%
h3-hermonville 11-08-2026 - 04:10 19.9°C / 66.5%
h4-hermonville 11-08-2026 - 04:08 21.8°C / 59%
h2-hermonville 11-08-2026 - 04:04 22.9°C / 56.5%
h1-hermonville 11-08-2026 - 04:04 18.1°C / 74%
h3-hermonville 11-08-2026 - 04:00 20°C / 66%
h4-hermonville 11-08-2026 - 03:58 21.9°C / 58.5%
h2-hermonville 11-08-2026 - 03:54 23°C / 56.5%
h1-hermonville 11-08-2026 - 03:54 18.1°C / 73.5%
h3-hermonville 11-08-2026 - 03:50 20°C / 65.5%
h4-hermonville 11-08-2026 - 03:48 21.8°C / 58.5%
h2-hermonville 11-08-2026 - 03:44 23.1°C / 56%
h1-hermonville 11-08-2026 - 03:44 18.3°C / 73%
h3-hermonville 11-08-2026 - 03:40 20.3°C / 65%
h4-hermonville 11-08-2026 - 03:38 22°C / 58.5%
h2-hermonville 11-08-2026 - 03:34 23.4°C / 55.5%
h1-hermonville 11-08-2026 - 03:34 18.4°C / 72.5%
h3-hermonville 11-08-2026 - 03:30 20.3°C / 65%
h2-hermonville 11-08-2026 - 03:24 23.3°C / 56%
h1-hermonville 11-08-2026 - 03:24 18.6°C / 72.5%
h3-hermonville 11-08-2026 - 03:20 20.4°C / 64.5%
h4-hermonville 11-08-2026 - 03:18 22.4°C / 57.5%
h2-hermonville 11-08-2026 - 03:14 23.1°C / 56.5%
h1-hermonville 11-08-2026 - 03:14 18.7°C / 71.5%
h3-hermonville 11-08-2026 - 03:10 20.5°C / 64%
h4-hermonville 11-08-2026 - 03:08 22.3°C / 57%
h2-hermonville 11-08-2026 - 03:04 23.6°C / 55%
h1-hermonville 11-08-2026 - 03:04 18.8°C / 71.5%
h3-hermonville 11-08-2026 - 03:00 20.9°C / 63.5%
h4-hermonville 11-08-2026 - 02:58 22.3°C / 57.5%
h2-hermonville 11-08-2026 - 02:54 23.6°C / 54.5%
h1-hermonville 11-08-2026 - 02:54 19°C / 71%
h3-hermonville 11-08-2026 - 02:50 20.9°C / 63%
h4-hermonville 11-08-2026 - 02:48 22.4°C / 57%
h1-hermonville 11-08-2026 - 02:44 19.1°C / 70%
h3-hermonville 11-08-2026 - 02:40 21.1°C / 62.5%
h4-hermonville 11-08-2026 - 02:38 22.5°C / 56.5%
h2-hermonville 11-08-2026 - 02:34 24.1°C / 53%
h1-hermonville 11-08-2026 - 02:34 19.2°C / 69.5%
h3-hermonville 11-08-2026 - 02:30 21°C / 62%
h4-hermonville 11-08-2026 - 02:28 22.6°C / 56%
h1-hermonville 11-08-2026 - 02:24 19.4°C / 69%
h3-hermonville 11-08-2026 - 02:20 21.1°C / 61.5%
h4-hermonville 11-08-2026 - 02:18 22.8°C / 55.5%
h2-hermonville 11-08-2026 - 02:14 24.3°C / 52.5%
h1-hermonville 11-08-2026 - 02:14 19.5°C / 68%
h3-hermonville 11-08-2026 - 02:10 21.4°C / 61%
h4-hermonville 11-08-2026 - 02:08 22.7°C / 55.5%
h1-hermonville 11-08-2026 - 02:04 19.8°C / 67%
h3-hermonville 11-08-2026 - 02:00 21.5°C / 60%
h4-hermonville 11-08-2026 - 01:58 22.9°C / 55%
h2-hermonville 11-08-2026 - 01:54 24.7°C / 51%
h1-hermonville 11-08-2026 - 01:54 19.8°C / 66.5%
h3-hermonville 11-08-2026 - 01:50 21.7°C / 59.5%
h4-hermonville 11-08-2026 - 01:48 22.9°C / 55%
h2-hermonville 11-08-2026 - 01:44 25.1°C / 50%
h1-hermonville 11-08-2026 - 01:44 20.1°C / 66%
h3-hermonville 11-08-2026 - 01:40 21.9°C / 59%
h4-hermonville 11-08-2026 - 01:38 23°C / 54%
h2-hermonville 11-08-2026 - 01:34 25.1°C / 50%
h1-hermonville 11-08-2026 - 01:34 20.3°C / 65%
h3-hermonville 11-08-2026 - 01:30 22°C / 58.5%
h4-hermonville 11-08-2026 - 01:28 23.2°C / 54%
h2-hermonville 11-08-2026 - 01:24 25.2°C / 49.5%
h1-hermonville 11-08-2026 - 01:24 20.5°C / 64%
h3-hermonville 11-08-2026 - 01:20 22.2°C / 58%
h2-hermonville 11-08-2026 - 01:14 25.3°C / 49.5%
h1-hermonville 11-08-2026 - 01:14 20.6°C / 63.5%
h3-hermonville 11-08-2026 - 01:10 22.3°C / 57.5%
h4-hermonville 11-08-2026 - 01:08 23.4°C / 53%
h2-hermonville 11-08-2026 - 01:04 25.4°C / 49.5%
h3-hermonville 11-08-2026 - 01:00 22.4°C / 57%
h4-hermonville 11-08-2026 - 00:58 23.6°C / 53%
h2-hermonville 11-08-2026 - 00:54 25.5°C / 49.5%
h1-hermonville 11-08-2026 - 00:54 21°C / 62.5%
h3-hermonville 11-08-2026 - 00:50 22.5°C / 56.5%
h4-hermonville 11-08-2026 - 00:48 23.6°C / 52.5%
h2-hermonville 11-08-2026 - 00:44 25.4°C / 49.5%
h1-hermonville 11-08-2026 - 00:44 21.1°C / 62%
h3-hermonville 11-08-2026 - 00:40 22.6°C / 56.5%
h4-hermonville 11-08-2026 - 00:38 23.8°C / 52.5%
h2-hermonville 11-08-2026 - 00:34 25.5°C / 48.5%
h1-hermonville 11-08-2026 - 00:34 21.2°C / 61.5%
h3-hermonville 11-08-2026 - 00:30 22.8°C / 56%
h4-hermonville 11-08-2026 - 00:28 23.9°C / 51.5%
h2-hermonville 11-08-2026 - 00:24 25.8°C / 48.5%
h1-hermonville 11-08-2026 - 00:24 21.4°C / 61%
h3-hermonville 11-08-2026 - 00:20 22.9°C / 55.5%
h4-hermonville 11-08-2026 - 00:18 24°C / 51.5%
h2-hermonville 11-08-2026 - 00:14 25.9°C / 48%
h1-hermonville 11-08-2026 - 00:14 21.5°C / 60.5%
h3-hermonville 11-08-2026 - 00:10 23°C / 55%
h4-hermonville 11-08-2026 - 00:08 24.1°C / 51%
h2-hermonville 11-08-2026 - 00:04 25.9°C / 48%
h1-hermonville 11-08-2026 - 00:04 21.7°C / 59.5%
h3-hermonville 11-08-2026 - 00:00 23.1°C / 54.5%